sensor_id;sensor_type;location;lat;lon;timestamp;P1;durP1;ratioP1;P2;durP2;ratioP2
83801;SDS011;73818;51.646;15.140;2024-02-23T00:04:13;3;;;1;;
83801;SDS011;73818;51.646;15.140;2024-02-23T00:10:24;2;;;1;;
83801;SDS011;73818;51.646;15.140;2024-02-23T00:16:39;2;;;1;;
83801;SDS011;73818;51.646;15.140;2024-02-23T00:22:48;2;;;1;;
83801;SDS011;73818;51.646;15.140;2024-02-23T00:28:59;2;;;1;;
83801;SDS011;73818;51.646;15.140;2024-02-23T00:35:10;3;;;1;;
83801;SDS011;73818;51.646;15.140;2024-02-23T00:41:22;2;;;0;;
83801;SDS011;73818;51.646;15.140;2024-02-23T00:47:33;2;;;0;;
83801;SDS011;73818;51.646;15.140;2024-02-23T00:53:45;2;;;0;;
83801;SDS011;73818;51.646;15.140;2024-02-23T00:59:56;2;;;1;;
83801;SDS011;73818;51.646;15.140;2024-02-23T01:06:08;2;;;1;;
83801;SDS011;73818;51.646;15.140;2024-02-23T01:12:20;2;;;0;;
83801;SDS011;73818;51.646;15.140;2024-02-23T01:18:32;2;;;0;;
83801;SDS011;73818;51.646;15.140;2024-02-23T01:24:43;2;;;0;;
83801;SDS011;73818;51.646;15.140;2024-02-23T01:30:55;2;;;0;;
83801;SDS011;73818;51.646;15.140;2024-02-23T01:37:07;2;;;0;;
83801;SDS011;73818;51.646;15.140;2024-02-23T01:43:19;2;;;0;;
83801;SDS011;73818;51.646;15.140;2024-02-23T01:49:30;2;;;0;;
83801;SDS011;73818;51.646;15.140;2024-02-23T01:55:42;2;;;0;;
83801;SDS011;73818;51.646;15.140;2024-02-23T02:01:55;2;;;0;;
83801;SDS011;73818;51.646;15.140;2024-02-23T02:08:06;1;;;0;;
83801;SDS011;73818;51.646;15.140;2024-02-23T02:14:17;2;;;0;;
83801;SDS011;73818;51.646;15.140;2024-02-23T02:20:31;2;;;0;;
83801;SDS011;73818;51.646;15.140;2024-02-23T02:26:40;2;;;0;;
83801;SDS011;73818;51.646;15.140;2024-02-23T02:32:52;2;;;0;;
83801;SDS011;73818;51.646;15.140;2024-02-23T02:39:04;1;;;0;;
83801;SDS011;73818;51.646;15.140;2024-02-23T02:45:15;2;;;0;;
83801;SDS011;73818;51.646;15.140;2024-02-23T02:51:27;2;;;0;;
83801;SDS011;73818;51.646;15.140;2024-02-23T02:57:39;1;;;0;;
83801;SDS011;73818;51.646;15.140;2024-02-23T03:03:50;2;;;0;;
83801;SDS011;73818;51.646;15.140;2024-02-23T03:10:02;2;;;0;;
83801;SDS011;73818;51.646;15.140;2024-02-23T03:16:16;1;;;0;;
83801;SDS011;73818;51.646;15.140;2024-02-23T03:22:25;1;;;0;;
83801;SDS011;73818;51.646;15.140;2024-02-23T03:28:37;1;;;0;;
83801;SDS011;73818;51.646;15.140;2024-02-23T03:34:48;1;;;0;;
83801;SDS011;73818;51.646;15.140;2024-02-23T03:40:59;1;;;0;;
83801;SDS011;73818;51.646;15.140;2024-02-23T03:47:11;1;;;0;;
83801;SDS011;73818;51.646;15.140;2024-02-23T03:53:23;1;;;0;;
83801;SDS011;73818;51.646;15.140;2024-02-23T03:59:35;1;;;0;;
83801;SDS011;73818;51.646;15.140;2024-02-23T04:05:47;2;;;0;;
83801;SDS011;73818;51.646;15.140;2024-02-23T04:11:59;1;;;0;;
83801;SDS011;73818;51.646;15.140;2024-02-23T04:18:10;1;;;0;;
83801;SDS011;73818;51.646;15.140;2024-02-23T04:24:22;1;;;0;;
83801;SDS011;73818;51.646;15.140;2024-02-23T04:30:33;1;;;0;;
83801;SDS011;73818;51.646;15.140;2024-02-23T04:36:45;1;;;0;;
83801;SDS011;73818;51.646;15.140;2024-02-23T04:42:57;1;;;0;;
83801;SDS011;73818;51.646;15.140;2024-02-23T04:49:10;1;;;0;;
83801;SDS011;73818;51.646;15.140;2024-02-23T04:55:20;1;;;0;;
83801;SDS011;73818;51.646;15.140;2024-02-23T05:01:34;1;;;0;;
83801;SDS011;73818;51.646;15.140;2024-02-23T05:07:43;1;;;0;;
83801;SDS011;73818;51.646;15.140;2024-02-23T05:13:55;1;;;0;;
83801;SDS011;73818;51.646;15.140;2024-02-23T05:20:07;1;;;0;;
83801;SDS011;73818;51.646;15.140;2024-02-23T05:26:17;1;;;0;;
83801;SDS011;73818;51.646;15.140;2024-02-23T05:32:29;1;;;0;;
83801;SDS011;73818;51.646;15.140;2024-02-23T05:38:40;1;;;0;;
83801;SDS011;73818;51.646;15.140;2024-02-23T05:44:52;1;;;0;;
83801;SDS011;73818;51.646;15.140;2024-02-23T05:51:03;164;;;27;;
83801;SDS011;73818;51.646;15.140;2024-02-23T05:57:14;86;;;16;;
83801;SDS011;73818;51.646;15.140;2024-02-23T06:03:26;36;;;8;;
83801;SDS011;73818;51.646;15.140;2024-02-23T06:09:38;17;;;4;;
83801;SDS011;73818;51.646;15.140;2024-02-23T06:15:49;11;;;3;;
83801;SDS011;73818;51.646;15.140;2024-02-23T06:22:00;8;;;2;;
83801;SDS011;73818;51.646;15.140;2024-02-23T06:28:13;7;;;2;;
83801;SDS011;73818;51.646;15.140;2024-02-23T06:34:24;9;;;2;;
83801;SDS011;73818;51.646;15.140;2024-02-23T06:40:35;7;;;2;;
83801;SDS011;73818;51.646;15.140;2024-02-23T06:46:48;6;;;1;;
83801;SDS011;73818;51.646;15.140;2024-02-23T06:52:59;5;;;1;;
83801;SDS011;73818;51.646;15.140;2024-02-23T06:59:11;5;;;1;;
83801;SDS011;73818;51.646;15.140;2024-02-23T07:05:23;4;;;1;;
83801;SDS011;73818;51.646;15.140;2024-02-23T07:11:34;4;;;1;;
83801;SDS011;73818;51.646;15.140;2024-02-23T07:17:45;3;;;1;;
83801;SDS011;73818;51.646;15.140;2024-02-23T07:23:57;7;;;1;;
83801;SDS011;73818;51.646;15.140;2024-02-23T07:30:09;3;;;1;;
83801;SDS011;73818;51.646;15.140;2024-02-23T07:36:20;4;;;0;;
83801;SDS011;73818;51.646;15.140;2024-02-23T07:42:32;3;;;0;;
83801;SDS011;73818;51.646;15.140;2024-02-23T07:48:44;3;;;0;;
83801;SDS011;73818;51.646;15.140;2024-02-23T07:54:55;4;;;0;;
83801;SDS011;73818;51.646;15.140;2024-02-23T08:01:07;3;;;0;;
83801;SDS011;73818;51.646;15.140;2024-02-23T08:07:18;4;;;0;;
83801;SDS011;73818;51.646;15.140;2024-02-23T08:13:30;2;;;0;;
83801;SDS011;73818;51.646;15.140;2024-02-23T08:19:41;2;;;0;;
83801;SDS011;73818;51.646;15.140;2024-02-23T08:25:52;3;;;0;;
83801;SDS011;73818;51.646;15.140;2024-02-23T08:32:05;3;;;0;;
83801;SDS011;73818;51.646;15.140;2024-02-23T08:38:16;4;;;1;;
83801;SDS011;73818;51.646;15.140;2024-02-23T08:44:28;5;;;1;;
83801;SDS011;73818;51.646;15.140;2024-02-23T08:50:39;4;;;0;;
83801;SDS011;73818;51.646;15.140;2024-02-23T08:56:51;9;;;2;;
83801;SDS011;73818;51.646;15.140;2024-02-23T09:03:02;14;;;3;;
83801;SDS011;73818;51.646;15.140;2024-02-23T09:09:13;22;;;4;;
83801;SDS011;73818;51.646;15.140;2024-02-23T09:15:25;25;;;5;;
83801;SDS011;73818;51.646;15.140;2024-02-23T09:21:36;27;;;6;;
83801;SDS011;73818;51.646;15.140;2024-02-23T09:27:49;28;;;6;;
83801;SDS011;73818;51.646;15.140;2024-02-23T09:34:00;26;;;5;;
83801;SDS011;73818;51.646;15.140;2024-02-23T09:40:12;26;;;5;;
83801;SDS011;73818;51.646;15.140;2024-02-23T09:46:23;23;;;5;;
83801;SDS011;73818;51.646;15.140;2024-02-23T09:52:35;23;;;5;;
83801;SDS011;73818;51.646;15.140;2024-02-23T09:58:47;19;;;5;;
83801;SDS011;73818;51.646;15.140;2024-02-23T10:04:58;20;;;4;;
83801;SDS011;73818;51.646;15.140;2024-02-23T10:11:10;19;;;4;;
83801;SDS011;73818;51.646;15.140;2024-02-23T10:17:21;16;;;4;;
83801;SDS011;73818;51.646;15.140;2024-02-23T10:23:34;16;;;4;;
83801;SDS011;73818;51.646;15.140;2024-02-23T10:29:48;17;;;3;;
83801;SDS011;73818;51.646;15.140;2024-02-23T10:35:58;16;;;4;;
83801;SDS011;73818;51.646;15.140;2024-02-23T10:42:09;14;;;4;;
83801;SDS011;73818;51.646;15.140;2024-02-23T10:48:21;14;;;3;;
83801;SDS011;73818;51.646;15.140;2024-02-23T10:54:33;14;;;3;;
83801;SDS011;73818;51.646;15.140;2024-02-23T11:00:44;12;;;3;;
83801;SDS011;73818;51.646;15.140;2024-02-23T11:06:56;12;;;3;;
83801;SDS011;73818;51.646;15.140;2024-02-23T11:13:08;11;;;3;;
83801;SDS011;73818;51.646;15.140;2024-02-23T11:19:20;10;;;3;;
83801;SDS011;73818;51.646;15.140;2024-02-23T11:25:31;12;;;3;;
83801;SDS011;73818;51.646;15.140;2024-02-23T11:31:46;12;;;2;;
83801;SDS011;73818;51.646;15.140;2024-02-23T11:37:55;10;;;2;;
83801;SDS011;73818;51.646;15.140;2024-02-23T11:44:07;10;;;2;;
83801;SDS011;73818;51.646;15.140;2024-02-23T11:50:17;9;;;2;;
83801;SDS011;73818;51.646;15.140;2024-02-23T11:56:29;8;;;2;;
83801;SDS011;73818;51.646;15.140;2024-02-23T12:02:40;9;;;2;;
83801;SDS011;73818;51.646;15.140;2024-02-23T12:08:52;9;;;2;;
83801;SDS011;73818;51.646;15.140;2024-02-23T12:15:04;6;;;2;;
83801;SDS011;73818;51.646;15.140;2024-02-23T12:21:15;8;;;2;;
83801;SDS011;73818;51.646;15.140;2024-02-23T12:27:26;6;;;2;;
83801;SDS011;73818;51.646;15.140;2024-02-23T12:33:39;6;;;2;;
83801;SDS011;73818;51.646;15.140;2024-02-23T12:39:50;6;;;1;;
83801;SDS011;73818;51.646;15.140;2024-02-23T12:46:01;7;;;2;;
83801;SDS011;73818;51.646;15.140;2024-02-23T12:52:13;6;;;1;;
83801;SDS011;73818;51.646;15.140;2024-02-23T12:58:25;6;;;2;;
83801;SDS011;73818;51.646;15.140;2024-02-23T13:04:37;6;;;1;;
83801;SDS011;73818;51.646;15.140;2024-02-23T13:10:49;6;;;1;;
83801;SDS011;73818;51.646;15.140;2024-02-23T13:17:01;5;;;1;;
83801;SDS011;73818;51.646;15.140;2024-02-23T13:23:13;6;;;1;;
83801;SDS011;73818;51.646;15.140;2024-02-23T13:29:25;5;;;1;;
83801;SDS011;73818;51.646;15.140;2024-02-23T13:35:37;5;;;1;;
83801;SDS011;73818;51.646;15.140;2024-02-23T13:41:48;4;;;1;;
83801;SDS011;73818;51.646;15.140;2024-02-23T13:48:00;11;;;2;;
83801;SDS011;73818;51.646;15.140;2024-02-23T13:54:11;11;;;3;;
83801;SDS011;73818;51.646;15.140;2024-02-23T14:00:23;13;;;3;;
83801;SDS011;73818;51.646;15.140;2024-02-23T14:06:35;13;;;3;;
83801;SDS011;73818;51.646;15.140;2024-02-23T14:12:46;13;;;3;;
83801;SDS011;73818;51.646;15.140;2024-02-23T14:18:57;11;;;2;;
83801;SDS011;73818;51.646;15.140;2024-02-23T14:25:10;11;;;2;;
83801;SDS011;73818;51.646;15.140;2024-02-23T14:31:21;11;;;2;;
83801;SDS011;73818;51.646;15.140;2024-02-23T14:37:32;10;;;2;;
83801;SDS011;73818;51.646;15.140;2024-02-23T14:43:44;9;;;2;;
83801;SDS011;73818;51.646;15.140;2024-02-23T14:49:56;9;;;2;;
83801;SDS011;73818;51.646;15.140;2024-02-23T14:56:08;9;;;2;;
83801;SDS011;73818;51.646;15.140;2024-02-23T15:02:21;8;;;2;;
83801;SDS011;73818;51.646;15.140;2024-02-23T15:08:32;7;;;1;;
83801;SDS011;73818;51.646;15.140;2024-02-23T15:14:43;7;;;2;;
83801;SDS011;73818;51.646;15.140;2024-02-23T15:20:55;8;;;1;;
83801;SDS011;73818;51.646;15.140;2024-02-23T15:27:07;7;;;1;;
83801;SDS011;73818;51.646;15.140;2024-02-23T15:33:18;7;;;1;;
83801;SDS011;73818;51.646;15.140;2024-02-23T15:39:30;6;;;1;;
83801;SDS011;73818;51.646;15.140;2024-02-23T15:45:43;5;;;1;;
83801;SDS011;73818;51.646;15.140;2024-02-23T15:51:54;5;;;1;;
83801;SDS011;73818;51.646;15.140;2024-02-23T15:58:07;5;;;1;;
83801;SDS011;73818;51.646;15.140;2024-02-23T16:04:18;5;;;1;;
83801;SDS011;73818;51.646;15.140;2024-02-23T16:10:29;5;;;1;;
83801;SDS011;73818;51.646;15.140;2024-02-23T16:16:41;5;;;1;;
83801;SDS011;73818;51.646;15.140;2024-02-23T16:22:52;5;;;1;;
83801;SDS011;73818;51.646;15.140;2024-02-23T16:29:04;6;;;1;;
83801;SDS011;73818;51.646;15.140;2024-02-23T16:35:16;5;;;1;;
83801;SDS011;73818;51.646;15.140;2024-02-23T16:41:27;5;;;1;;
83801;SDS011;73818;51.646;15.140;2024-02-23T16:47:38;5;;;1;;
83801;SDS011;73818;51.646;15.140;2024-02-23T16:53:50;5;;;1;;
83801;SDS011;73818;51.646;15.140;2024-02-23T17:00:02;5;;;1;;
83801;SDS011;73818;51.646;15.140;2024-02-23T17:06:13;5;;;1;;
83801;SDS011;73818;51.646;15.140;2024-02-23T17:12:25;5;;;1;;
83801;SDS011;73818;51.646;15.140;2024-02-23T17:18:36;5;;;1;;
83801;SDS011;73818;51.646;15.140;2024-02-23T17:24:48;5;;;1;;
83801;SDS011;73818;51.646;15.140;2024-02-23T17:31:00;6;;;2;;
83801;SDS011;73818;51.646;15.140;2024-02-23T17:37:11;6;;;2;;
83801;SDS011;73818;51.646;15.140;2024-02-23T17:43:23;6;;;2;;
83801;SDS011;73818;51.646;15.140;2024-02-23T17:49:34;7;;;2;;
83801;SDS011;73818;51.646;15.140;2024-02-23T17:55:46;6;;;2;;
83801;SDS011;73818;51.646;15.140;2024-02-23T18:01:57;6;;;2;;
83801;SDS011;73818;51.646;15.140;2024-02-23T18:08:09;7;;;2;;
83801;SDS011;73818;51.646;15.140;2024-02-23T18:14:20;6;;;2;;
83801;SDS011;73818;51.646;15.140;2024-02-23T18:20:33;7;;;3;;
83801;SDS011;73818;51.646;15.140;2024-02-23T18:26:44;7;;;2;;
83801;SDS011;73818;51.646;15.140;2024-02-23T18:32:55;7;;;3;;
83801;SDS011;73818;51.646;15.140;2024-02-23T18:39:07;8;;;3;;
83801;SDS011;73818;51.646;15.140;2024-02-23T18:45:19;6;;;2;;
83801;SDS011;73818;51.646;15.140;2024-02-23T18:51:30;6;;;2;;
83801;SDS011;73818;51.646;15.140;2024-02-23T18:57:42;6;;;2;;
83801;SDS011;73818;51.646;15.140;2024-02-23T19:03:54;7;;;3;;
83801;SDS011;73818;51.646;15.140;2024-02-23T19:10:06;8;;;3;;
83801;SDS011;73818;51.646;15.140;2024-02-23T19:16:17;6;;;3;;
83801;SDS011;73818;51.646;15.140;2024-02-23T19:22:29;7;;;3;;
83801;SDS011;73818;51.646;15.140;2024-02-23T19:31:40;7;;;3;;
83801;SDS011;73818;51.646;15.140;2024-02-23T19:37:52;7;;;3;;
83801;SDS011;73818;51.646;15.140;2024-02-23T19:44:04;7;;;4;;
83801;SDS011;73818;51.646;15.140;2024-02-23T19:50:15;8;;;3;;
83801;SDS011;73818;51.646;15.140;2024-02-23T19:56:27;7;;;4;;
83801;SDS011;73818;51.646;15.140;2024-02-23T20:02:39;8;;;4;;
83801;SDS011;73818;51.646;15.140;2024-02-23T20:08:51;7;;;3;;
83801;SDS011;73818;51.646;15.140;2024-02-23T20:15:03;7;;;4;;
83801;SDS011;73818;51.646;15.140;2024-02-23T20:21:14;7;;;4;;
83801;SDS011;73818;51.646;15.140;2024-02-23T20:27:26;8;;;4;;
83801;SDS011;73818;51.646;15.140;2024-02-23T20:33:38;7;;;4;;
83801;SDS011;73818;51.646;15.140;2024-02-23T20:39:50;7;;;4;;
83801;SDS011;73818;51.646;15.140;2024-02-23T20:46:02;8;;;4;;
83801;SDS011;73818;51.646;15.140;2024-02-23T20:52:13;8;;;3;;
83801;SDS011;73818;51.646;15.140;2024-02-23T20:58:25;7;;;4;;
83801;SDS011;73818;51.646;15.140;2024-02-23T21:04:37;9;;;4;;
83801;SDS011;73818;51.646;15.140;2024-02-23T21:10:50;9;;;5;;
83801;SDS011;73818;51.646;15.140;2024-02-23T21:17:01;8;;;4;;
83801;SDS011;73818;51.646;15.140;2024-02-23T21:23:12;7;;;4;;
83801;SDS011;73818;51.646;15.140;2024-02-23T21:29:25;7;;;4;;
83801;SDS011;73818;51.646;15.140;2024-02-23T21:35:36;8;;;4;;
83801;SDS011;73818;51.646;15.140;2024-02-23T21:41:47;7;;;4;;
83801;SDS011;73818;51.646;15.140;2024-02-23T21:47:59;7;;;3;;
83801;SDS011;73818;51.646;15.140;2024-02-23T21:54:12;7;;;3;;
83801;SDS011;73818;51.646;15.140;2024-02-23T22:00:23;7;;;4;;
83801;SDS011;73818;51.646;15.140;2024-02-23T22:06:35;7;;;3;;
83801;SDS011;73818;51.646;15.140;2024-02-23T22:12:47;7;;;4;;
83801;SDS011;73818;51.646;15.140;2024-02-23T22:18:58;6;;;3;;
83801;SDS011;73818;51.646;15.140;2024-02-23T22:25:09;6;;;3;;
83801;SDS011;73818;51.646;15.140;2024-02-23T22:31:21;6;;;3;;
83801;SDS011;73818;51.646;15.140;2024-02-23T22:37:32;6;;;3;;
83801;SDS011;73818;51.646;15.140;2024-02-23T22:43:44;7;;;3;;
83801;SDS011;73818;51.646;15.140;2024-02-23T22:49:56;7;;;4;;
83801;SDS011;73818;51.646;15.140;2024-02-23T22:56:08;8;;;4;;
83801;SDS011;73818;51.646;15.140;2024-02-23T23:02:19;8;;;4;;
83801;SDS011;73818;51.646;15.140;2024-02-23T23:08:31;9;;;3;;
83801;SDS011;73818;51.646;15.140;2024-02-23T23:14:42;7;;;3;;
83801;SDS011;73818;51.646;15.140;2024-02-23T23:20:54;8;;;4;;
83801;SDS011;73818;51.646;15.140;2024-02-23T23:27:06;7;;;3;;
83801;SDS011;73818;51.646;15.140;2024-02-23T23:33:20;7;;;3;;
83801;SDS011;73818;51.646;15.140;2024-02-23T23:39:29;7;;;3;;
83801;SDS011;73818;51.646;15.140;2024-02-23T23:45:40;7;;;4;;
83801;SDS011;73818;51.646;15.140;2024-02-23T23:51:52;9;;;4;;
83801;SDS011;73818;51.646;15.140;2024-02-23T23:58:03;8;;;4;;
